sensor_id;sensor_type;location;lat;lon;timestamp;pressure;altitude;pressure_sealevel;temperature;humidity
9189;BME280;34313;50.780;6.084;2023-05-01T00:01:14;99624.09;;;11.16;85.58
9189;BME280;34313;50.780;6.084;2023-05-01T00:03:39;99622.50;;;11.14;85.74
9189;BME280;34313;50.780;6.084;2023-05-01T00:06:05;99619.97;;;11.12;85.62
9189;BME280;34313;50.780;6.084;2023-05-01T00:08:31;99617.06;;;11.17;85.33
9189;BME280;34313;50.780;6.084;2023-05-01T00:11:04;99613.47;;;11.18;84.78
9189;BME280;34313;50.780;6.084;2023-05-01T00:13:30;99615.53;;;11.13;85.48
9189;BME280;34313;50.780;6.084;2023-05-01T00:15:56;99608.66;;;11.10;85.50
9189;BME280;34313;50.780;6.084;2023-05-01T00:18:21;99600.75;;;11.10;85.76
9189;BME280;34313;50.780;6.084;2023-05-01T00:20:46;99597.34;;;11.08;85.74
9189;BME280;34313;50.780;6.084;2023-05-01T00:23:12;99593.22;;;11.19;85.02
9189;BME280;34313;50.780;6.084;2023-05-01T00:25:38;99587.47;;;11.12;85.54
9189;BME280;34313;50.780;6.084;2023-05-01T00:28:03;99590.00;;;11.13;85.38
9189;BME280;34313;50.780;6.084;2023-05-01T00:30:31;99594.50;;;11.11;85.41
9189;BME280;34313;50.780;6.084;2023-05-01T00:32:56;99585.84;;;11.09;85.85
9189;BME280;34313;50.780;6.084;2023-05-01T00:35:22;99590.34;;;11.07;86.01
9189;BME280;34313;50.780;6.084;2023-05-01T00:37:47;99582.28;;;11.10;85.97
9189;BME280;34313;50.780;6.084;2023-05-01T00:40:12;99584.75;;;11.13;85.73
9189;BME280;34313;50.780;6.084;2023-05-01T00:42:38;99576.16;;;11.10;86.13
9189;BME280;34313;50.780;6.084;2023-05-01T00:45:05;99581.44;;;11.10;86.26
9189;BME280;34313;50.780;6.084;2023-05-01T00:47:35;99574.94;;;11.15;85.90
9189;BME280;34313;50.780;6.084;2023-05-01T00:50:11;99569.19;;;11.23;85.13
9189;BME280;34313;50.780;6.084;2023-05-01T00:52:37;99566.19;;;11.15;85.46
9189;BME280;34313;50.780;6.084;2023-05-01T00:55:04;99565.81;;;11.21;85.71
9189;BME280;34313;50.780;6.084;2023-05-01T00:57:31;99560.03;;;11.14;85.44
9189;BME280;34313;50.780;6.084;2023-05-01T00:59:56;99560.34;;;11.10;86.07
9189;BME280;34313;50.780;6.084;2023-05-01T01:02:22;99549.78;;;11.10;86.49
9189;BME280;34313;50.780;6.084;2023-05-01T01:04:47;99548.81;;;11.11;86.85
9189;BME280;34313;50.780;6.084;2023-05-01T01:07:21;99541.88;;;11.10;87.30
9189;BME280;34313;50.780;6.084;2023-05-01T01:09:58;99542.53;;;11.13;87.44
9189;BME280;34313;50.780;6.084;2023-05-01T01:12:33;99535.63;;;11.11;87.34
9189;BME280;34313;50.780;6.084;2023-05-01T01:21:06;99524.53;;;11.20;86.72
9189;BME280;34313;50.780;6.084;2023-05-01T01:23:35;99529.91;;;11.19;85.98
9189;BME280;34313;50.780;6.084;2023-05-01T01:31:19;99517.91;;;11.13;86.97
9189;BME280;34313;50.780;6.084;2023-05-01T01:39:10;99511.31;;;11.06;86.75
9189;BME280;34313;50.780;6.084;2023-05-01T01:41:38;99514.34;;;11.00;87.07
9189;BME280;34313;50.780;6.084;2023-05-01T01:44:18;99505.28;;;11.04;86.95
9189;BME280;34313;50.780;6.084;2023-05-01T01:46:47;99503.78;;;11.00;87.01
9189;BME280;34313;50.780;6.084;2023-05-01T01:49:20;99500.03;;;11.04;87.11
9189;BME280;34313;50.780;6.084;2023-05-01T01:51:49;99494.00;;;11.02;86.91
9189;BME280;34313;50.780;6.084;2023-05-01T01:54:18;99492.50;;;10.97;87.15
9189;BME280;34313;50.780;6.084;2023-05-01T01:56:47;99488.31;;;10.93;87.55
9189;BME280;34313;50.780;6.084;2023-05-01T01:59:14;99489.19;;;10.94;87.99
9189;BME280;34313;50.780;6.084;2023-05-01T02:01:40;99485.88;;;10.90;88.24
9189;BME280;34313;50.780;6.084;2023-05-01T02:04:08;99478.91;;;10.89;88.22
9189;BME280;34313;50.780;6.084;2023-05-01T02:06:35;99480.50;;;10.92;88.18
9189;BME280;34313;50.780;6.084;2023-05-01T02:09:02;99480.81;;;10.87;88.59
9189;BME280;34313;50.780;6.084;2023-05-01T02:11:30;99476.38;;;10.88;88.74
9189;BME280;34313;50.780;6.084;2023-05-01T02:13:58;99472.97;;;10.86;89.08
9189;BME280;34313;50.780;6.084;2023-05-01T02:16:26;99475.69;;;10.84;89.22
9189;BME280;34313;50.780;6.084;2023-05-01T02:18:53;99466.09;;;10.83;89.32
9189;BME280;34313;50.780;6.084;2023-05-01T02:21:19;99463.53;;;10.82;89.61
9189;BME280;34313;50.780;6.084;2023-05-01T02:23:45;99461.84;;;10.81;89.76
9189;BME280;34313;50.780;6.084;2023-05-01T02:26:14;99454.13;;;10.77;89.82
9189;BME280;34313;50.780;6.084;2023-05-01T02:28:41;99460.34;;;10.76;89.93
9189;BME280;34313;50.780;6.084;2023-05-01T02:31:06;99448.28;;;10.72;89.67
9189;BME280;34313;50.780;6.084;2023-05-01T02:33:31;99453.47;;;10.74;89.86
9189;BME280;34313;50.780;6.084;2023-05-01T02:35:57;99445.94;;;10.68;89.62
9189;BME280;34313;50.780;6.084;2023-05-01T02:38:22;99447.78;;;10.66;89.81
9189;BME280;34313;50.780;6.084;2023-05-01T02:40:51;99441.94;;;10.60;90.18
9189;BME280;34313;50.780;6.084;2023-05-01T02:43:20;99435.16;;;10.56;90.94
9189;BME280;34313;50.780;6.084;2023-05-01T02:45:46;99426.69;;;10.51;90.85
9189;BME280;34313;50.780;6.084;2023-05-01T02:48:16;99434.59;;;10.51;90.46
9189;BME280;34313;50.780;6.084;2023-05-01T02:50:43;99433.00;;;10.49;91.05
9189;BME280;34313;50.780;6.084;2023-05-01T02:53:09;99438.25;;;10.49;91.48
9189;BME280;34313;50.780;6.084;2023-05-01T02:55:36;99427.16;;;10.44;91.54
9189;BME280;34313;50.780;6.084;2023-05-01T02:58:01;99434.22;;;10.43;91.70
9189;BME280;34313;50.780;6.084;2023-05-01T03:00:27;99424.78;;;10.39;91.44
9189;BME280;34313;50.780;6.084;2023-05-01T03:02:52;99422.22;;;10.37;91.48
9189;BME280;34313;50.780;6.084;2023-05-01T03:05:18;99423.44;;;10.32;91.42
9189;BME280;34313;50.780;6.084;2023-05-01T03:07:44;99417.47;;;10.28;90.86
9189;BME280;34313;50.780;6.084;2023-05-01T03:10:10;99423.78;;;10.26;90.60
9189;BME280;34313;50.780;6.084;2023-05-01T03:12:35;99411.72;;;10.21;90.53
9189;BME280;34313;50.780;6.084;2023-05-01T03:15:00;99413.59;;;10.19;90.74
9189;BME280;34313;50.780;6.084;2023-05-01T03:17:26;99412.91;;;10.16;90.95
9189;BME280;34313;50.780;6.084;2023-05-01T03:19:51;99407.72;;;10.14;91.03
9189;BME280;34313;50.780;6.084;2023-05-01T03:22:16;99407.06;;;10.11;91.21
9189;BME280;34313;50.780;6.084;2023-05-01T03:24:42;99411.56;;;10.09;92.10
9189;BME280;34313;50.780;6.084;2023-05-01T03:27:08;99401.38;;;10.02;93.11
9189;BME280;34313;50.780;6.084;2023-05-01T03:29:33;99404.97;;;10.01;93.93
9189;BME280;34313;50.780;6.084;2023-05-01T03:31:59;99406.72;;;10.17;94.18
9189;BME280;34313;50.780;6.084;2023-05-01T03:34:25;99402.63;;;10.11;94.39
9189;BME280;34313;50.780;6.084;2023-05-01T03:36:51;99392.19;;;10.10;94.46
9189;BME280;34313;50.780;6.084;2023-05-01T03:39:17;99392.47;;;10.05;94.74
9189;BME280;34313;50.780;6.084;2023-05-01T03:41:42;99395.28;;;10.02;95.50
9189;BME280;34313;50.780;6.084;2023-05-01T03:44:07;99394.78;;;9.95;96.17
9189;BME280;34313;50.780;6.084;2023-05-01T03:46:32;99394.28;;;9.89;97.10
9189;BME280;34313;50.780;6.084;2023-05-01T03:48:58;99390.63;;;9.91;97.98
9189;BME280;34313;50.780;6.084;2023-05-01T03:51:23;99386.38;;;9.89;97.86
9189;BME280;34313;50.780;6.084;2023-05-01T03:53:49;99391.09;;;9.83;98.28
9189;BME280;34313;50.780;6.084;2023-05-01T03:56:16;99382.41;;;9.81;98.40
9189;BME280;34313;50.780;6.084;2023-05-01T03:58:42;99380.88;;;9.77;98.41
9189;BME280;34313;50.780;6.084;2023-05-01T04:01:07;99387.00;;;9.78;98.81
9189;BME280;34313;50.780;6.084;2023-05-01T04:03:33;99387.00;;;9.78;99.11
9189;BME280;34313;50.780;6.084;2023-05-01T04:05:58;99384.44;;;9.76;99.78
9189;BME280;34313;50.780;6.084;2023-05-01T04:08:23;99375.72;;;9.76;99.72
9189;BME280;34313;50.780;6.084;2023-05-01T04:10:49;99382.69;;;9.77;99.46
9189;BME280;34313;50.780;6.084;2023-05-01T04:13:14;99382.75;;;9.75;99.08
9189;BME280;34313;50.780;6.084;2023-05-01T04:15:43;99376.38;;;9.79;98.48
9189;BME280;34313;50.780;6.084;2023-05-01T04:18:09;99383.19;;;9.83;98.64
9189;BME280;34313;50.780;6.084;2023-05-01T04:20:34;99370.03;;;9.83;98.53
9189;BME280;34313;50.780;6.084;2023-05-01T04:23:00;99377.47;;;9.91;98.55
9189;BME280;34313;50.780;6.084;2023-05-01T04:25:25;99377.88;;;9.99;98.43
9189;BME280;34313;50.780;6.084;2023-05-01T04:27:51;99378.47;;;10.05;97.84
9189;BME280;34313;50.780;6.084;2023-05-01T04:30:16;99372.91;;;10.09;97.70
9189;BME280;34313;50.780;6.084;2023-05-01T04:32:42;99370.78;;;10.16;96.88
9189;BME280;34313;50.780;6.084;2023-05-01T04:35:07;99374.66;;;10.25;96.61
9189;BME280;34313;50.780;6.084;2023-05-01T04:37:33;99370.81;;;10.30;96.27
9189;BME280;34313;50.780;6.084;2023-05-01T04:39:59;99365.88;;;10.40;95.69
9189;BME280;34313;50.780;6.084;2023-05-01T04:42:32;99366.47;;;10.45;95.01
9189;BME280;34313;50.780;6.084;2023-05-01T04:44:57;99377.09;;;10.58;94.19
9189;BME280;34313;50.780;6.084;2023-05-01T04:47:26;99369.69;;;10.65;93.88
9189;BME280;34313;50.780;6.084;2023-05-01T04:49:52;99365.81;;;10.70;93.43
9189;BME280;34313;50.780;6.084;2023-05-01T04:52:18;99373.91;;;10.82;93.36
9189;BME280;34313;50.780;6.084;2023-05-01T04:54:43;99363.72;;;10.90;92.20
9189;BME280;34313;50.780;6.084;2023-05-01T04:57:08;99365.91;;;10.97;91.56
9189;BME280;34313;50.780;6.084;2023-05-01T04:59:33;99367.22;;;11.05;91.05
9189;BME280;34313;50.780;6.084;2023-05-01T05:01:59;99370.88;;;11.16;90.43
9189;BME280;34313;50.780;6.084;2023-05-01T05:04:24;99370.31;;;11.26;89.11
9189;BME280;34313;50.780;6.084;2023-05-01T05:06:50;99363.50;;;11.36;88.22
9189;BME280;34313;50.780;6.084;2023-05-01T05:09:15;99362.91;;;11.45;87.30
9189;BME280;34313;50.780;6.084;2023-05-01T05:11:40;99362.41;;;11.53;87.04
9189;BME280;34313;50.780;6.084;2023-05-01T05:14:05;99359.16;;;11.62;86.72
9189;BME280;34313;50.780;6.084;2023-05-01T05:16:31;99360.16;;;11.74;86.25
9189;BME280;34313;50.780;6.084;2023-05-01T05:18:56;99360.31;;;11.85;85.84
9189;BME280;34313;50.780;6.084;2023-05-01T05:21:22;99363.31;;;11.94;85.34
9189;BME280;34313;50.780;6.084;2023-05-01T05:23:47;99360.00;;;12.04;84.86
9189;BME280;34313;50.780;6.084;2023-05-01T05:26:12;99367.38;;;12.12;84.80
9189;BME280;34313;50.780;6.084;2023-05-01T05:28:38;99366.75;;;12.21;83.85
9189;BME280;34313;50.780;6.084;2023-05-01T05:31:03;99369.75;;;12.29;83.51
9189;BME280;34313;50.780;6.084;2023-05-01T05:33:28;99368.38;;;12.37;82.70
9189;BME280;34313;50.780;6.084;2023-05-01T05:35:54;99375.56;;;12.47;82.08
9189;BME280;34313;50.780;6.084;2023-05-01T05:38:19;99368.81;;;12.56;81.24
9189;BME280;34313;50.780;6.084;2023-05-01T05:40:44;99370.91;;;12.64;80.90
9189;BME280;34313;50.780;6.084;2023-05-01T05:43:10;99374.53;;;12.76;80.14
9189;BME280;34313;50.780;6.084;2023-05-01T05:45:36;99366.81;;;12.85;79.06
9189;BME280;34313;50.780;6.084;2023-05-01T05:48:02;99366.97;;;12.95;77.88
9189;BME280;34313;50.780;6.084;2023-05-01T05:50:27;99362.53;;;13.09;76.89
9189;BME280;34313;50.780;6.084;2023-05-01T05:52:54;99357.19;;;13.21;76.56
9189;BME280;34313;50.780;6.084;2023-05-01T05:55:19;99359.75;;;13.36;75.65
9189;BME280;34313;50.780;6.084;2023-05-01T05:57:44;99353.94;;;13.55;73.99
9189;BME280;34313;50.780;6.084;2023-05-01T06:00:10;99353.22;;;13.77;72.14
9189;BME280;34313;50.780;6.084;2023-05-01T06:02:36;99357.53;;;14.02;71.92
9189;BME280;34313;50.780;6.084;2023-05-01T06:05:02;99350.28;;;14.28;70.92
9189;BME280;34313;50.780;6.084;2023-05-01T06:07:27;99352.03;;;14.52;69.70
9189;BME280;34313;50.780;6.084;2023-05-01T06:09:53;99342.56;;;14.83;68.63
9189;BME280;34313;50.780;6.084;2023-05-01T06:12:18;99354.69;;;15.20;66.83
9189;BME280;34313;50.780;6.084;2023-05-01T06:14:44;99343.63;;;15.58;64.82
9189;BME280;34313;50.780;6.084;2023-05-01T06:17:09;99347.66;;;15.96;62.77
9189;BME280;34313;50.780;6.084;2023-05-01T06:19:35;99348.31;;;16.31;61.63
9189;BME280;34313;50.780;6.084;2023-05-01T06:22:01;99340.91;;;16.55;60.45
9189;BME280;34313;50.780;6.084;2023-05-01T06:24:26;99351.78;;;16.73;58.00
9189;BME280;34313;50.780;6.084;2023-05-01T06:26:52;99344.75;;;16.72;57.11
9189;BME280;34313;50.780;6.084;2023-05-01T06:29:17;99342.28;;;16.80;56.37
9189;BME280;34313;50.780;6.084;2023-05-01T06:31:43;99344.50;;;16.96;55.65
9189;BME280;34313;50.780;6.084;2023-05-01T06:34:08;99349.44;;;17.11;55.28
9189;BME280;34313;50.780;6.084;2023-05-01T06:36:33;99342.06;;;17.24;53.74
9189;BME280;34313;50.780;6.084;2023-05-01T06:38:59;99350.09;;;17.34;52.83
9189;BME280;34313;50.780;6.084;2023-05-01T06:41:24;99342.09;;;17.44;51.67
9189;BME280;34313;50.780;6.084;2023-05-01T06:43:50;99343.66;;;17.56;51.68
9189;BME280;34313;50.780;6.084;2023-05-01T06:46:16;99349.31;;;17.72;51.28
9189;BME280;34313;50.780;6.084;2023-05-01T06:48:41;99349.91;;;17.86;50.89
9189;BME280;34313;50.780;6.084;2023-05-01T06:51:06;99351.72;;;17.95;49.95
9189;BME280;34313;50.780;6.084;2023-05-01T06:53:32;99356.09;;;18.06;47.69
9189;BME280;34313;50.780;6.084;2023-05-01T06:55:57;99360.72;;;18.13;46.96
9189;BME280;34313;50.780;6.084;2023-05-01T06:58:22;99350.31;;;18.20;46.96
9189;BME280;34313;50.780;6.084;2023-05-01T07:00:48;99349.19;;;18.32;46.74
9189;BME280;34313;50.780;6.084;2023-05-01T07:03:13;99345.50;;;18.53;45.46
9189;BME280;34313;50.780;6.084;2023-05-01T07:05:38;99350.06;;;18.70;45.40
9189;BME280;34313;50.780;6.084;2023-05-01T07:08:06;99352.94;;;18.97;44.44
9189;BME280;34313;50.780;6.084;2023-05-01T07:10:33;99345.41;;;19.20;43.13
9189;BME280;34313;50.780;6.084;2023-05-01T07:12:59;99349.97;;;19.55;42.33
9189;BME280;34313;50.780;6.084;2023-05-01T07:15:24;99342.09;;;19.81;41.96
9189;BME280;34313;50.780;6.084;2023-05-01T07:17:50;99348.94;;;20.02;41.26
9189;BME280;34313;50.780;6.084;2023-05-01T07:20:15;99345.06;;;20.14;40.86
9189;BME280;34313;50.780;6.084;2023-05-01T07:22:41;99347.69;;;20.32;40.44
9189;BME280;34313;50.780;6.084;2023-05-01T07:25:07;99345.75;;;20.43;40.24
9189;BME280;34313;50.780;6.084;2023-05-01T07:27:32;99352.28;;;20.66;40.79
9189;BME280;34313;50.780;6.084;2023-05-01T07:29:59;99331.75;;;21.09;39.90
9189;BME280;34313;50.780;6.084;2023-05-01T07:32:24;99343.88;;;21.30;38.66
9189;BME280;34313;50.780;6.084;2023-05-01T07:34:50;99333.38;;;21.45;38.49
9189;BME280;34313;50.780;6.084;2023-05-01T07:37:15;99334.31;;;21.62;37.91
9189;BME280;34313;50.780;6.084;2023-05-01T07:39:41;99339.03;;;22.01;37.40
9189;BME280;34313;50.780;6.084;2023-05-01T07:42:06;99333.50;;;22.43;36.33
9189;BME280;34313;50.780;6.084;2023-05-01T07:44:32;99332.63;;;22.68;35.35
9189;BME280;34313;50.780;6.084;2023-05-01T07:47:03;99345.22;;;22.67;35.02
9189;BME280;34313;50.780;6.084;2023-05-01T07:49:34;99354.69;;;22.94;34.83
9189;BME280;34313;50.780;6.084;2023-05-01T07:52:00;99343.28;;;23.40;34.06
9189;BME280;34313;50.780;6.084;2023-05-01T07:54:26;99343.81;;;23.67;33.93
9189;BME280;34313;50.780;6.084;2023-05-01T07:56:51;99340.13;;;23.91;33.31
9189;BME280;34313;50.780;6.084;2023-05-01T07:59:16;99338.78;;;23.64;33.25
9189;BME280;34313;50.780;6.084;2023-05-01T08:01:42;99332.69;;;23.70;33.42
9189;BME280;34313;50.780;6.084;2023-05-01T08:04:07;99340.53;;;23.56;33.64
9189;BME280;34313;50.780;6.084;2023-05-01T08:06:33;99339.66;;;23.25;34.34
9189;BME280;34313;50.780;6.084;2023-05-01T08:08:58;99345.44;;;23.13;34.49
9189;BME280;34313;50.780;6.084;2023-05-01T08:11:24;99342.00;;;22.72;35.06
9189;BME280;34313;50.780;6.084;2023-05-01T08:13:50;99351.13;;;22.38;35.81
9189;BME280;34313;50.780;6.084;2023-05-01T08:16:15;99346.75;;;22.04;36.17
9189;BME280;34313;50.780;6.084;2023-05-01T08:18:40;99352.44;;;22.01;36.68
9189;BME280;34313;50.780;6.084;2023-05-01T08:21:06;99344.88;;;21.96;36.86
9189;BME280;34313;50.780;6.084;2023-05-01T08:23:31;99353.13;;;22.03;37.08
9189;BME280;34313;50.780;6.084;2023-05-01T08:25:57;99354.81;;;22.20;36.78
9189;BME280;34313;50.780;6.084;2023-05-01T08:28:22;99349.78;;;22.50;36.44
9189;BME280;34313;50.780;6.084;2023-05-01T08:30:48;99347.19;;;22.73;36.46
9189;BME280;34313;50.780;6.084;2023-05-01T08:33:13;99346.25;;;23.14;36.10
9189;BME280;34313;50.780;6.084;2023-05-01T08:35:39;99343.88;;;23.58;35.53
9189;BME280;34313;50.780;6.084;2023-05-01T08:38:04;99344.25;;;24.02;34.84
9189;BME280;34313;50.780;6.084;2023-05-01T08:40:33;99345.22;;;24.09;34.67
9189;BME280;34313;50.780;6.084;2023-05-01T08:43:00;99349.06;;;24.29;34.30
9189;BME280;34313;50.780;6.084;2023-05-01T08:45:27;99344.56;;;24.30;33.96
9189;BME280;34313;50.780;6.084;2023-05-01T08:47:56;99356.13;;;24.53;34.02
9189;BME280;34313;50.780;6.084;2023-05-01T08:50:23;99356.19;;;24.98;33.58
9189;BME280;34313;50.780;6.084;2023-05-01T08:52:50;99355.19;;;25.51;32.79
9189;BME280;34313;50.780;6.084;2023-05-01T08:55:18;99348.50;;;26.04;31.83
9189;BME280;34313;50.780;6.084;2023-05-01T08:57:45;99344.19;;;26.10;31.93
9189;BME280;34313;50.780;6.084;2023-05-01T09:00:17;99342.50;;;26.31;31.34
9189;BME280;34313;50.780;6.084;2023-05-01T09:02:45;99346.34;;;26.43;30.82
9189;BME280;34313;50.780;6.084;2023-05-01T09:05:12;99344.28;;;26.45;30.80
9189;BME280;34313;50.780;6.084;2023-05-01T09:07:39;99353.94;;;26.33;31.30
9189;BME280;34313;50.780;6.084;2023-05-01T09:10:05;99355.50;;;26.42;31.20
9189;BME280;34313;50.780;6.084;2023-05-01T09:12:32;99351.59;;;26.23;31.25
9189;BME280;34313;50.780;6.084;2023-05-01T09:15:01;99352.72;;;26.07;31.50
9189;BME280;34313;50.780;6.084;2023-05-01T09:17:26;99347.94;;;25.51;32.10
9189;BME280;34313;50.780;6.084;2023-05-01T09:19:55;99358.84;;;25.43;32.29
9189;BME280;34313;50.780;6.084;2023-05-01T09:22:20;99360.72;;;24.98;33.21
9189;BME280;34313;50.780;6.084;2023-05-01T09:24:46;99349.19;;;24.89;33.25
9189;BME280;34313;50.780;6.084;2023-05-01T09:27:12;99363.22;;;24.55;33.95
9189;BME280;34313;50.780;6.084;2023-05-01T09:32:18;99357.53;;;24.03;35.15
9189;BME280;34313;50.780;6.084;2023-05-01T09:34:48;99358.19;;;23.51;35.60
9189;BME280;34313;50.780;6.084;2023-05-01T09:37:28;99365.63;;;23.72;35.74
9189;BME280;34313;50.780;6.084;2023-05-01T09:40:08;99358.81;;;23.92;35.45
9189;BME280;34313;50.780;6.084;2023-05-01T09:42:48;99353.66;;;24.06;35.22
9189;BME280;34313;50.780;6.084;2023-05-01T09:45:14;99352.97;;;24.27;35.11
9189;BME280;34313;50.780;6.084;2023-05-01T09:47:44;99353.44;;;24.53;35.02
9189;BME280;34313;50.780;6.084;2023-05-01T09:50:32;99348.72;;;25.30;33.83
9189;BME280;34313;50.780;6.084;2023-05-01T09:53:03;99348.25;;;26.21;32.83
9189;BME280;34313;50.780;6.084;2023-05-01T09:55:30;99357.28;;;25.70;32.91
9189;BME280;34313;50.780;6.084;2023-05-01T09:57:56;99348.88;;;26.01;32.28
9189;BME280;34313;50.780;6.084;2023-05-01T10:00:23;99350.56;;;26.02;32.51
9189;BME280;34313;50.780;6.084;2023-05-01T10:02:50;99352.63;;;26.50;31.92
9189;BME280;34313;50.780;6.084;2023-05-01T10:05:15;99350.94;;;27.06;30.65
9189;BME280;34313;50.780;6.084;2023-05-01T10:07:59;99349.22;;;26.98;30.70
9189;BME280;34313;50.780;6.084;2023-05-01T10:10:26;99336.00;;;27.65;29.93
9189;BME280;34313;50.780;6.084;2023-05-01T10:12:52;99347.59;;;26.69;31.30
9189;BME280;34313;50.780;6.084;2023-05-01T10:15:17;99345.50;;;26.42;31.65
9189;BME280;34313;50.780;6.084;2023-05-01T10:17:44;99338.47;;;26.48;31.70
9189;BME280;34313;50.780;6.084;2023-05-01T10:20:11;99344.38;;;26.87;31.28
9189;BME280;34313;50.780;6.084;2023-05-01T10:22:37;99339.25;;;26.64;31.65
9189;BME280;34313;50.780;6.084;2023-05-01T10:25:06;99341.31;;;26.62;32.06
9189;BME280;34313;50.780;6.084;2023-05-01T10:27:33;99338.63;;;26.68;32.27
9189;BME280;34313;50.780;6.084;2023-05-01T10:30:01;99337.13;;;26.94;32.16
9189;BME280;34313;50.780;6.084;2023-05-01T10:32:29;99331.28;;;26.90;32.14
9189;BME280;34313;50.780;6.084;2023-05-01T10:34:59;99338.44;;;27.05;32.21
9189;BME280;34313;50.780;6.084;2023-05-01T10:37:47;99329.13;;;26.72;32.59
9189;BME280;34313;50.780;6.084;2023-05-01T10:45:52;99336.38;;;25.79;34.08
9189;BME280;34313;50.780;6.084;2023-05-01T10:54:28;99331.41;;;25.76;34.08
9189;BME280;34313;50.780;6.084;2023-05-01T10:58:57;99332.56;;;26.10;33.02
9189;BME280;34313;50.780;6.084;2023-05-01T11:01:33;99327.97;;;25.67;33.00
9189;BME280;34313;50.780;6.084;2023-05-01T11:04:03;99326.84;;;25.40;34.08
9189;BME280;34313;50.780;6.084;2023-05-01T11:06:29;99332.47;;;25.60;34.34
9189;BME280;34313;50.780;6.084;2023-05-01T11:08:55;99329.16;;;25.43;34.56
9189;BME280;34313;50.780;6.084;2023-05-01T11:13:59;99326.28;;;25.66;34.07
9189;BME280;34313;50.780;6.084;2023-05-01T11:16:45;99331.81;;;25.58;33.43
9189;BME280;34313;50.780;6.084;2023-05-01T11:21:47;99329.66;;;24.57;34.99
9189;BME280;34313;50.780;6.084;2023-05-01T11:24:12;99325.75;;;24.22;35.90
9189;BME280;34313;50.780;6.084;2023-05-01T11:26:40;99341.97;;;24.51;35.87
9189;BME280;34313;50.780;6.084;2023-05-01T11:29:07;99331.84;;;24.15;36.54
9189;BME280;34313;50.780;6.084;2023-05-01T11:31:33;99323.25;;;24.20;36.66
9189;BME280;34313;50.780;6.084;2023-05-01T11:33:59;99327.81;;;24.20;36.94
9189;BME280;34313;50.780;6.084;2023-05-01T11:36:25;99320.75;;;23.95;37.28
9189;BME280;34313;50.780;6.084;2023-05-01T11:38:53;99328.81;;;24.19;36.92
9189;BME280;34313;50.780;6.084;2023-05-01T11:41:21;99328.38;;;24.30;37.34
9189;BME280;34313;50.780;6.084;2023-05-01T11:43:54;99324.53;;;24.24;36.92
9189;BME280;34313;50.780;6.084;2023-05-01T11:46:28;99321.31;;;24.29;37.06
9189;BME280;34313;50.780;6.084;2023-05-01T11:48:58;99318.16;;;24.63;37.01
9189;BME280;34313;50.780;6.084;2023-05-01T11:51:24;99320.03;;;24.02;37.20
9189;BME280;34313;50.780;6.084;2023-05-01T11:56:25;99309.72;;;24.05;38.30
9189;BME280;34313;50.780;6.084;2023-05-01T11:58:52;99303.47;;;24.28;38.27
9189;BME280;34313;50.780;6.084;2023-05-01T12:01:17;99307.09;;;24.58;37.65
9189;BME280;34313;50.780;6.084;2023-05-01T12:03:43;99311.38;;;24.67;37.38
9189;BME280;34313;50.780;6.084;2023-05-01T12:06:10;99301.38;;;24.53;37.11
9189;BME280;34313;50.780;6.084;2023-05-01T12:08:43;99305.28;;;24.50;37.29
9189;BME280;34313;50.780;6.084;2023-05-01T12:11:09;99296.91;;;24.45;37.20
9189;BME280;34313;50.780;6.084;2023-05-01T12:13:35;99298.75;;;24.30;37.60
9189;BME280;34313;50.780;6.084;2023-05-01T12:16:01;99300.81;;;24.05;38.01
9189;BME280;34313;50.780;6.084;2023-05-01T12:18:28;99290.53;;;23.62;37.89
9189;BME280;34313;50.780;6.084;2023-05-01T12:20:53;99306.03;;;23.60;38.47
9189;BME280;34313;50.780;6.084;2023-05-01T12:23:34;99298.75;;;22.98;39.66
9189;BME280;34313;50.780;6.084;2023-05-01T12:26:01;99292.03;;;23.02;39.51
9189;BME280;34313;50.780;6.084;2023-05-01T12:28:27;99304.13;;;22.42;40.29
9189;BME280;34313;50.780;6.084;2023-05-01T12:31:00;99300.22;;;22.69;40.23
9189;BME280;34313;50.780;6.084;2023-05-01T12:33:26;99300.78;;;22.15;40.99
9189;BME280;34313;50.780;6.084;2023-05-01T12:35:51;99291.22;;;21.96;41.78
9189;BME280;34313;50.780;6.084;2023-05-01T12:38:18;99305.16;;;22.08;41.81
9189;BME280;34313;50.780;6.084;2023-05-01T12:40:50;99295.44;;;21.99;41.84
9189;BME280;34313;50.780;6.084;2023-05-01T12:43:18;99302.13;;;22.03;41.73
9189;BME280;34313;50.780;6.084;2023-05-01T12:45:44;99299.78;;;22.08;42.00
9189;BME280;34313;50.780;6.084;2023-05-01T12:48:12;99304.47;;;22.06;41.61
9189;BME280;34313;50.780;6.084;2023-05-01T12:50:39;99301.63;;;22.07;41.03
9189;BME280;34313;50.780;6.084;2023-05-01T12:53:05;99308.50;;;22.10;41.24
9189;BME280;34313;50.780;6.084;2023-05-01T12:55:31;99303.63;;;22.14;41.08
9189;BME280;34313;50.780;6.084;2023-05-01T12:58:00;99308.50;;;22.02;41.36
9189;BME280;34313;50.780;6.084;2023-05-01T13:00:25;99308.50;;;22.10;41.42
9189;BME280;34313;50.780;6.084;2023-05-01T13:02:50;99306.16;;;22.15;41.22
9189;BME280;34313;50.780;6.084;2023-05-01T13:05:16;99304.66;;;22.13;40.62
9189;BME280;34313;50.780;6.084;2023-05-01T13:07:47;99300.63;;;22.25;40.63
9189;BME280;34313;50.780;6.084;2023-05-01T13:10:13;99304.66;;;22.29;40.93
9189;BME280;34313;50.780;6.084;2023-05-01T13:12:43;99310.53;;;22.41;40.76
9189;BME280;34313;50.780;6.084;2023-05-01T13:15:18;99308.78;;;22.64;40.48
9189;BME280;34313;50.780;6.084;2023-05-01T13:17:45;99313.69;;;22.44;40.75
9189;BME280;34313;50.780;6.084;2023-05-01T13:20:10;99313.53;;;22.21;41.90
9189;BME280;34313;50.780;6.084;2023-05-01T13:22:37;99332.84;;;22.00;40.37
9189;BME280;34313;50.780;6.084;2023-05-01T13:25:18;99324.56;;;21.10;40.82
9189;BME280;34313;50.780;6.084;2023-05-01T13:27:49;99343.13;;;21.03;41.24
9189;BME280;34313;50.780;6.084;2023-05-01T13:30:16;99331.91;;;21.50;40.43
9189;BME280;34313;50.780;6.084;2023-05-01T13:32:43;99341.19;;;21.73;40.08
9189;BME280;34313;50.780;6.084;2023-05-01T13:35:10;99343.72;;;22.23;39.25
9189;BME280;34313;50.780;6.084;2023-05-01T13:37:36;99348.44;;;22.46;38.09
9189;BME280;34313;50.780;6.084;2023-05-01T13:40:02;99344.63;;;22.96;36.96
9189;BME280;34313;50.780;6.084;2023-05-01T13:42:28;99347.25;;;22.40;37.35
9189;BME280;34313;50.780;6.084;2023-05-01T13:44:54;99346.16;;;22.82;37.14
9189;BME280;34313;50.780;6.084;2023-05-01T13:47:22;99348.66;;;22.92;36.96
9189;BME280;34313;50.780;6.084;2023-05-01T13:49:51;99351.47;;;22.26;37.68
9189;BME280;34313;50.780;6.084;2023-05-01T13:52:18;99338.50;;;22.63;37.19